Terminal Aerodrome Forecast
Issued by NWS Charleston, WV

Current Version | Previous Version | Graphics & Text | Print | Product List | Glossary On
Versions: 1 2 3 4 5 6 7 8 9 10 11 12 13 14 15 16 17 18 19 20 21 22 23 24
740
FTUS41 KRLX 292339
TAFBKW
TAF
KBKW 292339Z 3000/3024 30006KT P6SM BKN250
     FM300800 12004KT P6SM OVC070
     FM301500 14006KT P6SM OVC025
     FM301700 15007KT 5SM SHRA OVC020
     FM301900 16011G18KT 5SM SHRA OVC015=

USA.gov is the U.S. government's official web portal to all federal, state and local government web resources and services.